Time;durP1;ratioP1;P1;durP2;ratioP2;P2;SDS_P1;SDS_P2;PMS_P1;PMS_P2;Temp;Humidity;BMP_temperature;BMP_pressure;BME280_temperature;BME280_humidity;BME280_pressure;Samples;Min_cycle;Max_cycle;Signal;HPM_P1;HPM_P2
2023/05/02 00:00:39;;;;;;;4.00;1.92;;;;;;;11.98;75.27;100907.63;6077026;28;20044;-71
2023/05/02 00:03:35;;;;;;;8.17;1.90;;;;;;;11.82;76.90;100900.28;6076264;28;20360;-71
2023/05/02 00:06:31;;;;;;;8.07;2.70;;;;;;;11.83;77.75;100907.28;6076573;28;20120;-71
2023/05/02 00:09:26;;;;;;;5.93;2.30;;;;;;;11.70;78.45;100906.81;6076758;28;20033;-72
2023/05/02 00:12:22;;;;;;;5.07;2.00;;;;;;;11.71;79.19;100928.91;6063433;28;20437;-70
2023/05/02 00:15:17;;;;;;;5.63;2.17;;;;;;;11.63;80.68;100926.94;6052224;28;20022;-71
2023/05/02 00:18:12;;;;;;;6.37;2.17;;;;;;;11.63;81.05;100916.31;6052747;28;20087;-70
2023/05/02 00:21:07;;;;;;;4.63;2.23;;;;;;;11.53;80.74;100915.53;6052403;28;20061;-71
2023/05/02 00:24:03;;;;;;;5.27;2.13;;;;;;;11.56;81.15;100925.88;6051659;28;20080;-71
2023/05/02 00:26:58;;;;;;;5.50;1.90;;;;;;;11.35;82.34;100912.84;6052238;28;20413;-72
2023/05/02 00:29:54;;;;;;;4.37;2.30;;;;;;;11.26;83.20;100916.34;6052569;28;20041;-70
2023/05/02 00:32:49;;;;;;;6.30;2.00;;;;;;;11.37;83.46;100928.59;6052248;28;20044;-70
2023/05/02 00:35:44;;;;;;;6.97;2.27;;;;;;;11.39;82.79;100926.63;6051339;28;20358;-72
2023/05/02 00:38:39;;;;;;;6.03;2.37;;;;;;;11.25;83.73;100929.78;6051226;28;20161;-69
2023/05/02 00:41:35;;;;;;;4.43;2.00;;;;;;;11.27;83.91;100931.31;6053135;28;20025;-72
2023/05/02 00:44:30;;;;;;;6.20;2.27;;;;;;;11.18;84.31;100926.84;6069942;28;20078;-70
2023/05/02 00:47:25;;;;;;;4.57;2.30;;;;;;;11.11;84.39;100946.16;6061739;28;20030;-71
2023/05/02 00:50:21;;;;;;;7.30;2.35;;;;;;;11.04;84.48;100927.31;6046114;28;20021;-72
2023/05/02 00:53:16;;;;;;;4.53;2.20;;;;;;;10.98;84.45;100914.59;6074875;28;20435;-72
2023/05/02 00:56:12;;;;;;;6.80;2.50;;;;;;;11.11;84.61;100935.56;6075394;28;20026;-70
2023/05/02 00:59:08;;;;;;;4.43;2.17;;;;;;;11.02;84.77;100925.78;6076005;28;20109;-70
2023/05/02 01:02:12;;;;;;;6.18;2.58;;;;;;;11.12;84.31;100937.19;6075578;28;20026;-70
2023/05/02 01:05:20;;;;;;;5.10;2.03;;;;;;;11.06;84.63;100943.91;6073492;28;20025;-71
2023/05/02 01:08:21;;;;;;;7.40;2.42;;;;;;;11.08;84.75;100934.03;6075328;28;20112;-70
2023/05/02 01:11:24;;;;;;;4.60;2.30;;;;;;;10.96;85.24;100926.34;6074068;28;20033;-71
2023/05/02 01:14:20;;;;;;;5.03;2.30;;;;;;;11.02;85.96;100947.84;6050599;28;20041;-71
2023/05/02 01:17:16;;;;;;;6.40;3.08;;;;;;;10.95;85.81;100937.97;6049841;28;20100;-72
2023/05/02 01:20:15;;;;;;;6.15;2.20;;;;;;;10.80;86.02;100936.72;6051312;28;20040;-71
2023/05/02 01:23:16;;;;;;;5.50;2.00;;;;;;;10.79;86.15;100927.09;6049795;28;20025;-71
2023/05/02 01:26:29;;;;;;;7.57;2.28;;;;;;;10.87;86.35;100949.25;6049780;28;20457;-71
2023/05/02 01:29:26;;;;;;;6.15;2.38;;;;;;;11.02;86.17;100941.72;6050912;28;20109;-70
2023/05/02 01:32:22;;;;;;;6.15;2.10;;;;;;;10.96;85.54;100926.34;6049963;28;20353;-71
2023/05/02 01:35:19;;;;;;;9.23;2.50;;;;;;;11.04;85.49;100940.59;6050217;28;20033;-71
2023/05/02 01:38:17;;;;;;;5.72;2.30;;;;;;;10.98;86.10;100932.38;6049386;28;20021;-71
2023/05/02 01:41:13;;;;;;;7.68;2.50;;;;;;;11.13;87.51;100944.19;6049672;28;20037;-72
2023/05/02 01:44:09;;;;;;;4.60;2.10;;;;;;;11.06;87.33;100948.41;6064998;28;20045;-71
2023/05/02 01:47:06;;;;;;;5.53;2.67;;;;;;;10.92;87.42;100941.75;6074702;28;20065;-72
2023/05/02 01:50:02;;;;;;;6.38;2.40;;;;;;;10.89;87.87;100947.34;6074294;28;20558;-71
2023/05/02 01:52:58;;;;;;;5.72;2.50;;;;;;;10.95;88.40;100951.22;6074128;28;20120;-71
2023/05/02 01:55:54;;;;;;;5.35;2.83;;;;;;;10.95;88.12;100948.56;6073634;28;20037;-72
2023/05/02 01:58:50;;;;;;;6.43;2.47;;;;;;;10.88;88.63;100947.47;6072869;28;20039;-72
2023/05/02 02:01:47;;;;;;;6.30;2.50;;;;;;;10.80;89.04;100942.03;6074276;28;20025;-72
2023/05/02 02:04:42;;;;;;;6.47;2.85;;;;;;;10.81;89.74;100956.97;6072139;28;20022;-71
2023/05/02 02:07:38;;;;;;;6.28;3.70;;;;;;;10.83;89.80;100965.63;6072898;28;20068;-71
2023/05/02 02:10:40;;;;;;;7.40;2.90;;;;;;;10.73;89.73;100961.16;6072751;28;20029;-71
2023/05/02 02:13:43;;;;;;;6.18;2.90;;;;;;;10.74;89.45;100965.50;6059147;28;20035;-70
2023/05/02 02:16:40;;;;;;;6.53;2.80;;;;;;;10.79;88.27;100964.25;6067642;28;20017;-71
2023/05/02 02:19:36;;;;;;;7.20;2.95;;;;;;;10.84;87.07;100959.34;6072543;28;20099;-70
2023/05/02 02:22:35;;;;;;;6.70;2.70;;;;;;;10.85;87.39;100977.75;6072667;28;20080;-72
2023/05/02 02:25:32;;;;;;;6.30;2.40;;;;;;;10.82;86.17;100970.09;6070615;28;20033;-72
2023/05/02 02:28:27;;;;;;;5.47;2.85;;;;;;;10.83;85.22;100965.63;6046596;28;20034;-71
2023/05/02 02:31:24;;;;;;;9.80;3.07;;;;;;;10.86;83.64;100981.25;6048665;28;20030;-71
2023/05/02 02:34:20;;;;;;;8.55;3.20;;;;;;;10.82;82.70;100971.91;6067677;28;20269;-72
2023/05/02 02:37:25;;;;;;;7.82;3.30;;;;;;;10.88;82.56;100997.88;6048556;28;20083;-71
2023/05/02 02:40:29;;;;;;;8.40;4.70;;;;;;;10.83;81.94;101000.09;6048278;28;20038;-72
2023/05/02 02:44:15;;;;;;;9.20;3.80;;;;;;;10.81;82.37;101008.22;6056688;28;20028;-73
2023/05/02 02:47:12;;;;;;;11.77;4.38;;;;;;;10.85;82.28;101011.41;6015984;28;20061;-70
2023/05/02 02:50:08;;;;;;;9.90;4.45;;;;;;;10.82;82.74;101014.38;6049658;28;20034;-68
2023/05/02 02:53:20;;;;;;;10.90;4.57;;;;;;;10.80;82.70;101003.03;6049356;28;20034;-71
2023/05/02 02:56:21;;;;;;;9.43;4.40;;;;;;;10.82;83.05;101017.03;6064810;28;20494;-71
2023/05/02 02:59:26;;;;;;;11.07;5.28;;;;;;;10.75;84.16;101006.97;6048173;28;20095;-69
2023/05/02 03:02:27;;;;;;;12.75;5.22;;;;;;;10.67;84.68;101014.78;6052682;28;20032;-71
2023/05/02 03:05:22;;;;;;;12.32;5.50;;;;;;;10.64;85.66;101017.72;6052144;28;20473;-70
2023/05/02 03:08:18;;;;;;;14.30;5.90;;;;;;;10.59;85.92;101014.63;6054195;28;20040;-71
2023/05/02 03:11:13;;;;;;;15.50;6.00;;;;;;;10.52;86.56;101008.19;6054030;28;20369;-72
2023/05/02 03:14:08;;;;;;;12.40;5.50;;;;;;;10.55;86.70;101020.34;6063427;28;20034;-69
2023/05/02 03:17:04;;;;;;;14.07;6.17;;;;;;;10.65;87.50;101032.63;6065584;28;20068;-69
2023/05/02 03:19:59;;;;;;;18.75;6.68;;;;;;;10.54;87.19;101032.78;6053856;28;20026;-71
2023/05/02 03:22:54;;;;;;;15.43;6.90;;;;;;;10.55;87.97;101031.78;6075923;28;20033;-70
2023/05/02 03:25:50;;;;;;;17.63;7.70;;;;;;;10.54;89.08;101045.19;6077076;28;20029;-71
2023/05/02 03:28:45;;;;;;;19.87;8.30;;;;;;;10.58;89.81;101055.38;6076136;28;20087;-71
2023/05/02 03:31:41;;;;;;;17.33;7.68;;;;;;;10.56;89.77;101040.59;6077539;28;20272;-69
2023/05/02 03:34:36;;;;;;;22.63;8.65;;;;;;;10.62;89.82;101050.66;6070084;28;20594;-69
2023/05/02 03:37:33;;;;;;;18.03;7.80;;;;;;;10.59;90.43;101057.06;6053644;28;20025;-70
2023/05/02 03:40:28;;;;;;;22.08;8.65;;;;;;;10.60;90.15;101053.41;6053472;28;20264;-71
2023/05/02 03:43:24;;;;;;;21.00;9.27;;;;;;;10.58;90.89;101046.56;6061096;28;20411;-70
2023/05/02 03:46:20;;;;;;;29.10;9.70;;;;;;;10.66;91.04;101049.38;6077158;28;20112;-70
2023/05/02 03:49:15;;;;;;;23.98;9.48;;;;;;;10.58;91.23;101044.78;6076931;28;20041;-71
2023/05/02 03:52:10;;;;;;;25.37;9.23;;;;;;;10.66;91.90;101062.63;6059584;28;20099;-69
2023/05/02 03:55:06;;;;;;;21.57;9.30;;;;;;;10.58;92.31;101055.38;6052378;28;20256;-70
2023/05/02 03:58:02;;;;;;;22.50;9.65;;;;;;;10.58;91.78;101055.38;6052768;28;20026;-71
2023/05/02 04:00:57;;;;;;;26.20;10.43;;;;;;;10.66;91.93;101060.84;6053095;28;20091;-71
2023/05/02 04:03:52;;;;;;;21.40;9.07;;;;;;;10.70;92.14;101075.50;6052192;28;20022;-73
2023/05/02 04:06:47;;;;;;;22.27;10.10;;;;;;;10.72;91.69;101067.41;6052861;28;20793;-72
2023/05/02 04:09:43;;;;;;;21.20;9.83;;;;;;;10.72;91.92;101070.06;6052879;28;20380;-70
2023/05/02 04:12:38;;;;;;;21.02;9.48;;;;;;;10.73;91.54;101075.22;6052776;28;20032;-69
2023/05/02 04:15:34;;;;;;;20.10;9.03;;;;;;;10.75;91.35;101073.28;6052038;28;20030;-70
2023/05/02 04:18:29;;;;;;;21.23;9.43;;;;;;;10.83;91.31;101077.03;6052541;28;20057;-71
2023/05/02 04:21:25;;;;;;;21.15;9.35;;;;;;;10.85;90.73;101096.31;6062606;28;20411;-70
2023/05/02 04:24:21;;;;;;;18.57;8.50;;;;;;;10.79;90.48;101076.47;6075732;28;20080;-71
2023/05/02 04:27:16;;;;;;;21.20;8.68;;;;;;;10.83;90.68;101092.97;6076525;28;20025;-73
2023/05/02 04:30:12;;;;;;;20.52;8.52;;;;;;;10.84;91.32;101102.59;6076437;28;20025;-70
2023/05/02 04:33:07;;;;;;;21.88;9.63;;;;;;;10.79;91.43;101103.00;6076018;28;20394;-72
2023/05/02 04:36:03;;;;;;;20.30;8.27;;;;;;;10.69;92.18;101094.19;6057393;28;20033;-71
2023/05/02 04:38:58;;;;;;;22.70;9.35;;;;;;;10.70;93.25;101107.34;6052032;28;20034;-71
2023/05/02 04:41:53;;;;;;;20.75;9.73;;;;;;;10.68;94.64;101119.06;6052239;28;20113;-71
2023/05/02 04:44:49;;;;;;;21.37;8.40;;;;;;;10.64;95.81;101122.94;6064006;28;20373;-71
2023/05/02 04:47:44;;;;;;;23.90;9.30;;;;;;;10.52;97.00;101114.25;6051095;28;20280;-71
2023/05/02 04:50:39;;;;;;;22.95;9.30;;;;;;;10.48;97.37;101128.78;6051736;28;20046;-71
2023/05/02 04:53:35;;;;;;;22.77;9.07;;;;;;;10.63;97.47;101132.72;6050816;28;20043;-71
2023/05/02 04:56:31;;;;;;;20.58;8.88;;;;;;;10.51;97.90;101117.06;6051781;28;20027;-70
2023/05/02 04:59:26;;;;;;;19.87;9.47;;;;;;;10.52;98.61;101137.28;6051442;28;20038;-73
2023/05/02 05:02:22;;;;;;;20.67;8.27;;;;;;;10.49;98.90;101141.03;6066672;28;20038;-70
2023/05/02 05:05:17;;;;;;;21.30;9.38;;;;;;;10.49;99.51;101146.34;6050710;28;20507;-70
2023/05/02 05:08:12;;;;;;;23.07;8.87;;;;;;;10.33;100.00;101140.72;6051216;28;20065;-71
2023/05/02 05:11:07;;;;;;;22.20;9.30;;;;;;;10.26;100.00;101159.94;6051489;28;20400;-72
2023/05/02 05:14:03;;;;;;;29.47;10.93;;;;;;;10.16;100.00;101173.97;6049263;28;20034;-72
2023/05/02 05:16:58;;;;;;;27.10;9.93;;;;;;;9.94;100.00;101170.63;6051131;28;20029;-71
2023/05/02 05:19:53;;;;;;;30.90;12.23;;;;;;;9.87;100.00;101169.44;6051227;28;20291;-73
2023/05/02 05:22:49;;;;;;;29.47;11.53;;;;;;;9.86;100.00;101165.16;6050150;28;20034;-70
2023/05/02 05:25:44;;;;;;;27.77;10.18;;;;;;;9.82;100.00;101185.75;6050538;28;20476;-71
2023/05/02 05:28:40;;;;;;;28.53;11.47;;;;;;;9.76;100.00;101177.47;6050368;28;20481;-70
2023/05/02 05:31:35;;;;;;;28.63;10.50;;;;;;;9.77;100.00;101189.75;6061507;28;20031;-71
2023/05/02 05:34:31;;;;;;;28.90;10.57;;;;;;;9.79;100.00;101201.03;6060209;28;20046;-71
2023/05/02 05:37:26;;;;;;;25.60;9.40;;;;;;;9.81;100.00;101207.06;6050617;28;20038;-70
2023/05/02 05:40:21;;;;;;;27.50;9.98;;;;;;;9.63;100.00;101200.66;6052186;28;20018;-70
2023/05/02 05:43:17;;;;;;;21.20;7.80;;;;;;;9.64;100.00;101215.59;6075509;28;20531;-69
2023/05/02 05:46:12;;;;;;;19.77;8.50;;;;;;;9.62;100.00;101213.03;6058831;28;20584;-71
2023/05/02 05:49:07;;;;;;;18.67;6.83;;;;;;;9.63;100.00;101230.63;6050667;28;20399;-69
2023/05/02 05:52:03;;;;;;;21.10;6.83;;;;;;;9.65;100.00;101228.69;6050138;28;20033;-70
2023/05/02 05:54:58;;;;;;;14.43;5.82;;;;;;;9.68;100.00;101235.53;6050108;28;20612;-70
2023/05/02 05:57:53;;;;;;;12.93;5.10;;;;;;;9.63;100.00;101229.78;6050113;28;20025;-69
2023/05/02 06:00:49;;;;;;;13.67;4.87;;;;;;;9.64;100.00;101253.50;6050310;28;20269;-68
2023/05/02 06:03:44;;;;;;;6.43;2.30;;;;;;;9.26;100.00;101256.63;6049631;28;20555;-68
2023/05/02 06:06:40;;;;;;;4.97;1.93;;;;;;;8.88;100.00;101258.88;6049911;28;20037;-69
2023/05/02 06:09:35;;;;;;;4.67;2.00;;;;;;;8.90;100.00;101276.28;6050291;28;20277;-70
2023/05/02 06:12:30;;;;;;;6.25;2.63;;;;;;;8.78;100.00;101276.41;6050183;28;20033;-69
2023/05/02 06:15:26;;;;;;;4.30;2.20;;;;;;;8.69;100.00;101279.78;6049392;28;20369;-69
2023/05/02 06:18:21;;;;;;;7.60;2.00;;;;;;;8.68;100.00;101315.09;6049904;28;20075;-68
2023/05/02 06:21:16;;;;;;;6.00;1.70;;;;;;;8.40;100.00;101313.75;6049916;28;20041;-68
2023/05/02 06:24:11;;;;;;;4.40;1.63;;;;;;;8.13;100.00;101305.22;6049237;28;20080;-70
2023/05/02 06:27:07;;;;;;;5.30;1.87;;;;;;;8.10;100.00;101308.94;6073882;28;20037;-70
2023/05/02 06:30:02;;;;;;;10.33;2.27;;;;;;;8.05;100.00;101326.09;6058698;28;20036;-69
2023/05/02 06:32:58;;;;;;;4.20;1.73;;;;;;;8.13;100.00;101316.66;6049690;28;20037;-69
2023/05/02 06:35:53;;;;;;;7.43;2.20;;;;;;;8.27;100.00;101324.41;6047715;28;20461;-70
2023/05/02 06:38:48;;;;;;;7.67;1.70;;;;;;;8.41;100.00;101327.81;6049391;28;20076;-69
2023/05/02 06:41:44;;;;;;;4.97;1.60;;;;;;;8.59;100.00;101344.91;6049027;28;20030;-69
2023/05/02 06:44:39;;;;;;;5.65;1.73;;;;;;;8.61;100.00;101356.22;6054472;28;20080;-70
2023/05/02 06:47:34;;;;;;;8.20;1.80;;;;;;;8.55;100.00;101349.59;6048962;28;20485;-69
2023/05/02 06:50:31;;;;;;;5.97;1.92;;;;;;;8.71;100.00;101373.88;6055898;28;20030;-70
2023/05/02 06:53:26;;;;;;;6.10;2.17;;;;;;;8.84;100.00;101373.78;6053960;28;20029;-71
2023/05/02 06:56:24;;;;;;;11.73;2.10;;;;;;;8.96;100.00;101394.84;6065829;28;20018;-68
2023/05/02 06:59:19;;;;;;;8.32;2.15;;;;;;;8.92;100.00;101400.47;6048457;28;20038;-70
2023/05/02 07:02:14;;;;;;;7.27;2.10;;;;;;;9.16;100.00;101401.19;6049141;28;20033;-70
2023/05/02 07:05:10;;;;;;;4.40;2.03;;;;;;;9.16;99.24;101395.09;6047934;28;20030;-70
2023/05/02 07:08:05;;;;;;;6.03;2.30;;;;;;;9.21;98.45;101406.16;6048754;28;20462;-69
2023/05/02 07:11:01;;;;;;;7.60;2.10;;;;;;;9.30;98.03;101403.63;6048800;28;20393;-70
2023/05/02 07:13:56;;;;;;;7.07;1.98;;;;;;;9.22;97.11;101406.03;6054586;28;20103;-70
2023/05/02 07:16:52;;;;;;;9.40;2.43;;;;;;;9.52;97.39;101416.84;6072813;28;20082;-70
2023/05/02 07:19:47;;;;;;;5.80;2.72;;;;;;;9.83;96.26;101430.28;6050948;28;20559;-69
2023/05/02 07:22:42;;;;;;;7.40;2.37;;;;;;;9.67;93.79;101427.19;6049232;28;20038;-70
2023/05/02 07:25:38;;;;;;;8.53;2.50;;;;;;;9.48;94.07;101420.69;6047988;28;20109;-70
2023/05/02 07:28:34;;;;;;;10.60;2.50;;;;;;;9.38;93.04;101435.59;6048672;28;20033;-70
2023/05/02 07:31:29;;;;;;;15.33;2.73;;;;;;;9.47;93.42;101440.19;6049220;28;20063;-70
2023/05/02 07:34:25;;;;;;;13.60;2.70;;;;;;;9.49;94.01;101434.75;6047192;28;20026;-71
2023/05/02 07:37:20;;;;;;;9.03;2.60;;;;;;;9.66;92.79;101441.38;6048382;28;20029;-70
2023/05/02 07:40:15;;;;;;;11.63;2.72;;;;;;;9.41;91.25;101438.03;6048533;28;20615;-70
2023/05/02 07:43:10;;;;;;;8.13;3.00;;;;;;;9.41;91.17;101440.66;6048570;28;20030;-70
2023/05/02 07:46:06;;;;;;;11.60;2.83;;;;;;;9.79;90.29;101450.00;6048640;28;20457;-71
2023/05/02 07:49:01;;;;;;;14.48;3.03;;;;;;;9.72;87.43;101440.88;6053812;28;20026;-70
2023/05/02 07:51:57;;;;;;;11.30;2.13;;;;;;;9.91;85.68;101446.41;6049711;28;20104;-73
2023/05/02 07:54:52;;;;;;;18.10;2.88;;;;;;;9.83;83.80;101443.53;6051830;28;20123;-70
2023/05/02 07:57:47;;;;;;;11.37;2.70;;;;;;;10.15;83.92;101461.19;6053250;28;20457;-69
2023/05/02 08:00:42;;;;;;;17.83;2.43;;;;;;;10.11;81.32;101462.34;6052850;28;20030;-69
2023/05/02 08:03:38;;;;;;;9.30;2.93;;;;;;;9.90;81.04;101455.28;6051393;28;20021;-71
2023/05/02 08:06:33;;;;;;;10.20;2.70;;;;;;;9.88;81.63;101486.38;6052457;28;20095;-72
2023/05/02 08:09:28;;;;;;;10.23;2.50;;;;;;;9.72;81.95;101483.25;6063481;28;20037;-72
2023/05/02 08:12:24;;;;;;;13.23;2.67;;;;;;;9.72;82.79;101486.75;6074880;28;20030;-70
2023/05/02 08:15:19;;;;;;;7.95;2.30;;;;;;;9.77;80.84;101491.69;6071115;28;20049;-70
2023/05/02 08:18:15;;;;;;;20.52;2.65;;;;;;;9.82;81.11;101497.44;6052238;28;20025;-70
2023/05/02 08:21:10;;;;;;;12.87;2.37;;;;;;;9.89;81.54;101501.31;6052501;28;20036;-71
2023/05/02 08:24:05;;;;;;;12.20;2.70;;;;;;;9.63;80.74;101503.38;6051235;28;20081;-72
2023/05/02 08:27:02;;;;;;;9.87;2.30;;;;;;;9.62;81.26;101506.16;6051982;28;20289;-71
2023/05/02 08:29:57;;;;;;;14.85;2.47;;;;;;;9.87;80.70;101508.53;6056816;28;20020;-71
2023/05/02 08:32:52;;;;;;;13.67;2.23;;;;;;;10.13;79.57;101515.28;6051402;28;20025;-71
2023/05/02 08:35:48;;;;;;;9.63;2.20;;;;;;;10.19;79.80;101520.09;6050808;28;20092;-71
2023/05/02 08:38:44;;;;;;;15.30;2.43;;;;;;;10.19;77.25;101532.50;6051599;28;20034;-71
2023/05/02 08:41:40;;;;;;;9.32;1.95;;;;;;;10.19;76.55;101520.09;6051965;28;20026;-71
2023/05/02 08:44:36;;;;;;;6.23;1.77;;;;;;;10.28;74.13;101529.09;6051273;28;20374;-70
2023/05/02 08:47:31;;;;;;;8.85;2.08;;;;;;;10.37;73.36;101545.09;6054472;28;20029;-70
2023/05/02 08:50:27;;;;;;;7.65;2.08;;;;;;;10.28;73.38;101539.69;6075519;28;20083;-71
2023/05/02 08:53:23;;;;;;;8.68;1.45;;;;;;;10.22;73.13;101548.97;6066572;28;20041;-72
2023/05/02 08:56:19;;;;;;;11.13;2.05;;;;;;;10.12;74.35;101548.00;6049858;28;20057;-72
2023/05/02 08:59:14;;;;;;;9.98;2.38;;;;;;;10.13;72.76;101558.53;6049254;28;20040;-72
2023/05/02 09:02:19;;;;;;;9.53;1.67;;;;;;;9.99;71.77;101572.00;6051574;28;20030;-72
2023/05/02 09:05:18;;;;;;;7.32;1.95;;;;;;;10.00;72.68;101578.16;6049178;28;20284;-71
2023/05/02 09:08:21;;;;;;;5.93;1.65;;;;;;;10.17;72.30;101580.31;6050975;28;20032;-69
2023/05/02 09:11:17;;;;;;;8.48;2.10;;;;;;;10.11;70.69;101583.41;6051338;28;20033;-70
2023/05/02 09:14:15;;;;;;;7.97;1.65;;;;;;;10.27;69.46;101581.28;6050065;28;20037;-70
2023/05/02 09:17:11;;;;;;;6.70;1.30;;;;;;;10.20;68.63;101595.13;6051209;28;20037;-69
2023/05/02 09:20:07;;;;;;;7.60;1.75;;;;;;;10.30;69.31;101599.56;6050966;28;20033;-71
2023/05/02 09:23:02;;;;;;;5.30;1.15;;;;;;;10.53;69.39;101613.63;6049359;28;20113;-71
2023/05/02 09:25:58;;;;;;;6.00;1.40;;;;;;;10.73;68.39;101613.69;6054047;28;20037;-70
2023/05/02 09:28:54;;;;;;;7.22;1.40;;;;;;;10.41;66.39;101612.81;6049554;28;20029;-71
2023/05/02 09:31:50;;;;;;;2.97;1.13;;;;;;;10.41;67.08;101610.16;6055948;28;20026;-71
2023/05/02 09:35:05;;;;;;;4.82;1.33;;;;;;;10.42;66.44;101630.41;6044815;28;20029;-70
2023/05/02 09:38:00;;;;;;;2.63;1.13;;;;;;;10.31;66.61;101635.72;6054888;28;20029;-70
2023/05/02 09:40:56;;;;;;;6.57;1.55;;;;;;;10.09;66.64;101625.09;6049597;28;20080;-71
2023/05/02 09:43:55;;;;;;;2.80;1.30;;;;;;;10.33;67.72;101644.41;6051799;28;20032;-70
2023/05/02 09:46:52;;;;;;;7.00;1.42;;;;;;;10.34;66.54;101635.50;6050402;28;20084;-72
2023/05/02 09:49:48;;;;;;;9.40;1.60;;;;;;;10.60;66.49;101636.88;6070964;28;20033;-71
2023/05/02 09:53:00;;;;;;;5.60;1.42;;;;;;;10.45;66.55;101643.44;6073049;28;20060;-70
2023/05/02 09:56:00;;;;;;;6.15;1.42;;;;;;;10.38;64.63;101641.41;6049252;28;20767;-71
2023/05/02 09:59:12;;;;;;;6.47;1.42;;;;;;;10.43;65.87;101647.19;6050310;28;20033;-71
2023/05/02 10:02:10;;;;;;;7.38;1.55;;;;;;;10.26;65.92;101659.13;6049840;28;20365;-72
2023/05/02 10:05:07;;;;;;;6.45;1.67;;;;;;;10.46;65.44;101661.00;6049182;28;20034;-72
2023/05/02 10:08:06;;;;;;;6.32;1.50;;;;;;;10.92;65.59;101660.84;6049639;28;20045;-71
2023/05/02 10:11:04;;;;;;;5.32;1.30;;;;;;;11.27;63.09;101658.78;6065604;28;20449;-70
2023/05/02 10:13:59;;;;;;;2.88;1.23;;;;;;;11.42;62.10;101666.41;6060865;28;20075;-72
2023/05/02 10:17:05;;;;;;;7.27;1.70;;;;;;;11.54;60.93;101676.88;6049596;28;20037;-71
2023/05/02 10:20:03;;;;;;;6.35;1.33;;;;;;;11.05;60.31;101653.56;6049735;28;20026;-72
2023/05/02 10:23:00;;;;;;;7.75;1.42;;;;;;;11.32;61.71;101666.34;6049259;28;20427;-71
2023/05/02 10:25:58;;;;;;;7.43;1.75;;;;;;;11.31;60.02;101664.66;6049104;28;20037;-71
2023/05/02 10:28:55;;;;;;;5.53;1.50;;;;;;;11.52;58.49;101660.22;6049479;28;20026;-72
2023/05/02 10:31:50;;;;;;;8.63;1.50;;;;;;;11.47;58.03;101678.34;6049999;28;20040;-72
2023/05/02 10:34:46;;;;;;;5.13;1.45;;;;;;;11.68;57.60;101673.91;6048051;28;20030;-70
2023/05/02 10:37:42;;;;;;;5.90;1.50;;;;;;;11.52;58.38;101670.84;6050040;28;20461;-70
2023/05/02 10:40:38;;;;;;;5.35;1.40;;;;;;;11.46;57.77;101687.31;6054885;28;20034;-68
2023/05/02 10:43:36;;;;;;;5.22;1.48;;;;;;;11.47;57.85;101688.16;6061963;28;20381;-70
2023/05/02 10:46:35;;;;;;;4.18;1.70;;;;;;;11.48;56.75;101677.38;6051638;28;20018;-71
2023/05/02 10:49:31;;;;;;;4.35;1.60;;;;;;;11.60;56.33;101689.66;6068316;28;20029;-70
2023/05/02 10:52:34;;;;;;;6.07;2.17;;;;;;;11.80;58.29;101686.16;6069632;28;20029;-73
2023/05/02 10:55:29;;;;;;;4.82;1.50;;;;;;;11.83;57.15;101688.56;6048247;28;20355;-70
2023/05/02 10:58:24;;;;;;;6.43;1.77;;;;;;;11.62;56.04;101690.34;6049000;28;20093;-71
2023/05/02 11:01:36;;;;;;;4.40;1.63;;;;;;;11.91;56.88;101702.06;6049131;28;20462;-70
2023/05/02 11:05:03;;;;;;;5.90;1.50;;;;;;;11.68;56.92;101700.47;6048062;28;20276;-70
2023/05/02 11:08:14;;;;;;;5.43;1.88;;;;;;;11.48;56.90;101695.97;6049046;28;20045;-70
2023/05/02 11:11:43;;;;;;;4.88;2.03;;;;;;;11.48;57.47;101701.28;6048818;28;20489;-71
2023/05/02 11:14:39;;;;;;;4.90;1.65;;;;;;;11.90;57.69;101697.69;6048210;28;20112;-72
2023/05/02 11:17:57;;;;;;;4.18;1.58;;;;;;;11.83;56.34;101703.66;6048246;28;20061;-72
2023/05/02 11:21:27;;;;;;;7.55;2.20;;;;;;;11.66;57.17;101702.41;6049186;28;20037;-70
2023/05/02 11:24:41;;;;;;;7.88;2.05;;;;;;;11.70;56.94;101713.66;6052705;28;20040;-71
2023/05/02 11:27:42;;;;;;;6.35;1.85;;;;;;;11.85;56.36;101701.72;6053628;28;20030;-71
2023/05/02 11:30:42;;;;;;;7.18;2.00;;;;;;;11.81;55.60;101698.50;6054042;28;20054;-71
2023/05/02 11:33:38;;;;;;;6.13;1.98;;;;;;;11.42;55.53;101701.78;6052770;28;20098;-71
2023/05/02 11:36:34;;;;;;;11.00;2.13;;;;;;;11.64;55.64;101704.34;6053746;28;20026;-71
2023/05/02 11:39:29;;;;;;;9.60;3.78;;;;;;;11.83;55.56;101693.88;6053589;28;20284;-71
2023/05/02 11:42:29;;;;;;;8.75;2.13;;;;;;;11.99;55.16;101709.38;6065320;28;20477;-70
2023/05/02 11:45:38;;;;;;;6.47;1.90;;;;;;;12.41;55.40;101700.38;6052378;28;20361;-70
2023/05/02 11:48:33;;;;;;;6.38;2.08;;;;;;;12.36;53.32;101712.38;6023901;28;20528;-70
2023/05/02 11:51:30;;;;;;;8.67;2.23;;;;;;;11.84;54.34;101703.56;6053530;28;20025;-72
2023/05/02 11:54:26;;;;;;;5.93;2.30;;;;;;;11.92;53.81;101717.03;6052169;28;20612;-73
2023/05/02 11:57:21;;;;;;;11.82;2.42;;;;;;;12.18;53.18;101716.59;6053296;28;20034;-71
2023/05/02 12:00:17;;;;;;;4.90;2.00;;;;;;;11.81;52.73;101711.78;6053117;28;20040;-70
2023/05/02 12:03:38;;;;;;;6.50;2.10;;;;;;;12.78;51.97;101719.25;6052641;28;20461;-69
2023/05/02 12:06:34;;;;;;;5.15;2.10;;;;;;;13.18;50.09;101726.41;6048993;28;20100;-72
2023/05/02 12:09:29;;;;;;;8.07;2.40;;;;;;;12.91;49.49;101709.19;6052835;28;20041;-72
2023/05/02 12:12:24;;;;;;;8.77;2.43;;;;;;;13.05;50.06;101719.47;6052778;28;20030;-71
2023/05/02 12:15:20;;;;;;;7.37;1.93;;;;;;;13.40;48.09;101718.97;6051772;28;20483;-72
2023/05/02 12:18:16;;;;;;;6.20;2.27;;;;;;;13.86;47.21;101702.25;6051489;28;20292;-72
2023/05/02 12:21:12;;;;;;;6.15;2.03;;;;;;;14.24;45.69;101702.16;6035280;28;20049;-71
2023/05/02 12:24:09;;;;;;;5.95;2.25;;;;;;;14.80;46.39;101709.28;6028247;28;20037;-71
2023/05/02 12:27:12;;;;;;;9.10;2.45;;;;;;;14.54;44.06;101729.66;6049953;28;20026;-70
2023/05/02 12:30:07;;;;;;;9.93;2.45;;;;;;;13.96;46.11;101713.78;6052107;28;20405;-72
2023/05/02 12:33:03;;;;;;;6.68;2.28;;;;;;;13.01;47.98;101736.72;6049788;28;20034;-72
2023/05/02 12:36:05;;;;;;;9.43;2.47;;;;;;;12.76;47.24;101731.03;6050926;28;20420;-71
2023/05/02 12:39:02;;;;;;;7.50;1.90;;;;;;;12.52;48.53;101737.53;6052245;28;20026;-70
2023/05/02 12:41:57;;;;;;;4.07;1.90;;;;;;;12.32;50.40;101742.88;6061695;28;20056;-71
2023/05/02 12:44:53;;;;;;;6.13;2.00;;;;;;;12.29;48.75;101751.09;6053998;28;20454;-70
2023/05/02 12:47:49;;;;;;;6.60;2.05;;;;;;;12.11;48.85;101744.72;6052003;28;20040;-70
2023/05/02 12:50:45;;;;;;;5.22;1.83;;;;;;;12.03;49.51;101763.13;6051793;28;20030;-72
2023/05/02 12:53:42;;;;;;;10.70;2.92;;;;;;;12.27;48.87;101755.72;6051015;28;20373;-71
2023/05/02 12:56:39;;;;;;;6.35;1.95;;;;;;;12.73;48.79;101748.09;6052142;28;20105;-71
2023/05/02 12:59:34;;;;;;;6.40;2.15;;;;;;;13.39;48.14;101759.09;6051502;28;20026;-71
2023/05/02 13:02:30;;;;;;;4.40;2.00;;;;;;;13.43;45.85;101752.50;6057384;28;20383;-71
2023/05/02 13:05:25;;;;;;;9.23;2.10;;;;;;;13.55;45.66;101751.41;6056158;28;20046;-70
2023/05/02 13:08:21;;;;;;;8.18;2.03;;;;;;;13.79;46.16;101743.81;6058104;28;20033;-69
2023/05/02 13:11:16;;;;;;;7.50;2.30;;;;;;;13.97;45.40;101752.75;6069630;28;20464;-71
2023/05/02 13:14:12;;;;;;;7.13;1.92;;;;;;;14.09;45.43;101754.31;6049528;28;20030;-71
2023/05/02 13:17:07;;;;;;;5.83;2.00;;;;;;;14.42;43.80;101754.81;6051398;28;20025;-69
2023/05/02 13:20:02;;;;;;;4.40;1.90;;;;;;;14.79;42.34;101750.31;6051104;28;20026;-72
2023/05/02 13:22:58;;;;;;;9.70;2.63;;;;;;;14.93;42.67;101760.50;6051441;28;20308;-73
2023/05/02 13:25:53;;;;;;;7.33;3.80;;;;;;;15.01;42.04;101754.41;6050328;28;20033;-67
2023/05/02 13:28:48;;;;;;;5.45;2.30;;;;;;;14.44;42.40;101782.19;6050965;28;20060;-72
2023/05/02 13:31:44;;;;;;;5.67;2.03;;;;;;;13.39;45.58;101783.06;6051194;28;20036;-70
2023/05/02 13:34:39;;;;;;;4.77;2.07;;;;;;;12.96;46.88;101800.16;6049976;28;20041;-71
2023/05/02 13:37:35;;;;;;;6.07;2.47;;;;;;;12.92;46.95;101780.13;6051113;28;20182;-70
2023/05/02 13:40:30;;;;;;;10.82;2.53;;;;;;;13.34;45.90;101780.00;6050881;28;20021;-68
2023/05/02 13:43:25;;;;;;;7.23;2.80;;;;;;;13.31;44.99;101785.59;6062236;28;20022;-70